createdAt,value
2019-06-08T00:01:53.357Z,3.67
2019-06-08T00:04:23.001Z,3.40
2019-06-08T00:06:52.573Z,3.30
2019-06-08T00:09:24.018Z,4.20
2019-06-08T00:11:54.021Z,3.97
2019-06-08T00:14:23.602Z,3.13
2019-06-08T00:16:53.202Z,4.60
2019-06-08T00:19:23.675Z,3.67
2019-06-08T00:21:53.409Z,4.17
2019-06-08T00:24:24.089Z,4.60
2019-06-08T00:26:54.520Z,5.07
2019-06-08T00:29:24.866Z,4.85
2019-06-08T00:31:54.571Z,5.87
2019-06-08T00:34:24.858Z,4.93
2019-06-08T00:36:55.288Z,5.40
2019-06-08T00:39:25.627Z,5.70
2019-06-08T00:41:55.304Z,5.47
2019-06-08T00:44:25.723Z,4.50
2019-06-08T00:46:56.126Z,5.07
2019-06-08T00:49:26.590Z,4.43
2019-06-08T00:51:56.986Z,4.60
2019-06-08T00:54:27.349Z,5.22
2019-06-08T00:56:57.708Z,5.13
2019-06-08T00:59:27.422Z,3.90
2019-06-08T01:01:57.711Z,4.47
2019-06-08T01:04:29.141Z,3.93
2019-06-08T01:06:58.907Z,4.87
2019-06-08T01:09:28.498Z,3.80
2019-06-08T01:11:58.759Z,3.83
2019-06-08T01:14:29.112Z,4.80
2019-06-08T01:16:58.824Z,3.53
2019-06-08T01:19:29.691Z,3.30
2019-06-08T01:22:00.177Z,3.03
2019-06-08T01:24:30.045Z,2.75
2019-06-08T01:27:00.376Z,2.90
2019-06-08T01:29:30.749Z,2.53
2019-06-08T01:32:01.128Z,2.23
2019-06-08T01:34:31.544Z,3.17
2019-06-08T01:37:01.932Z,2.80
2019-06-08T01:39:32.540Z,2.33
2019-06-08T01:42:02.466Z,3.00
2019-06-08T01:44:32.744Z,2.90
2019-06-08T01:47:03.154Z,2.37
2019-06-08T01:49:32.824Z,2.73
2019-06-08T01:52:03.114Z,3.00
2019-06-08T01:54:33.489Z,2.47
2019-06-08T01:57:03.191Z,2.40
2019-06-08T01:59:34.686Z,2.00
2019-06-08T02:02:04.088Z,1.87
2019-06-08T02:04:34.825Z,2.27
2019-06-08T02:07:04.858Z,2.70
2019-06-08T02:09:34.839Z,2.60
2019-06-08T02:12:04.671Z,3.63
2019-06-08T02:14:35.395Z,3.30
2019-06-08T02:17:05.258Z,3.57
2019-06-08T02:19:34.879Z,2.87
2019-06-08T02:22:04.580Z,2.47
2019-06-08T02:24:35.379Z,2.47
2019-06-08T02:27:05.112Z,2.83
2019-06-08T02:29:35.810Z,2.73
2019-06-08T02:32:05.472Z,3.10
2019-06-08T02:34:37.535Z,3.47
2019-06-08T02:37:07.135Z,3.23
2019-06-08T02:39:38.488Z,3.10
2019-06-08T02:42:08.782Z,3.20
2019-06-08T02:44:38.489Z,3.67
2019-06-08T02:47:08.089Z,3.97
2019-06-08T02:49:39.573Z,4.80
2019-06-08T02:52:10.683Z,4.47
2019-06-08T02:54:41.177Z,3.83
2019-06-08T02:57:12.543Z,3.97
2019-06-08T02:59:42.400Z,3.73
2019-06-08T03:02:13.215Z,3.87
2019-06-08T03:04:42.843Z,3.93
2019-06-08T03:07:13.147Z,5.10
2019-06-08T03:09:43.704Z,5.27
2019-06-08T03:12:14.729Z,5.50
2019-06-08T03:14:44.883Z,4.30
2019-06-08T03:17:14.532Z,4.70
2019-06-08T03:19:44.143Z,5.10
2019-06-08T03:22:13.741Z,4.50
2019-06-08T03:24:44.137Z,4.90
2019-06-08T03:27:13.880Z,4.77
2019-06-08T03:29:44.010Z,4.37
2019-06-08T03:32:13.821Z,4.57
2019-06-08T03:34:53.884Z,4.67
2019-06-08T03:37:16.179Z,5.75
2019-06-08T03:39:45.872Z,6.13
2019-06-08T03:42:15.508Z,5.63
2019-06-08T03:44:45.769Z,3.60
2019-06-08T03:47:15.497Z,4.63
2019-06-08T03:49:54.850Z,5.80
2019-06-08T03:52:16.343Z,5.80
2019-06-08T03:54:47.073Z,5.03
2019-06-08T03:57:16.872Z,5.30
2019-06-08T03:59:47.825Z,3.93
2019-06-08T04:02:17.525Z,4.40
2019-06-08T04:04:47.797Z,3.50
2019-06-08T04:07:18.468Z,4.00
2019-06-08T04:09:48.043Z,4.53
2019-06-08T04:12:18.352Z,3.60
2019-06-08T04:14:50.100Z,2.93
2019-06-08T04:17:20.208Z,3.33
2019-06-08T04:20:09.640Z,2.50
2019-06-08T04:22:21.054Z,3.20
2019-06-08T04:24:51.327Z,2.60
2019-06-08T04:27:21.033Z,2.37
2019-06-08T04:29:50.643Z,2.97
2019-06-08T04:32:20.255Z,3.07
2019-06-08T04:34:50.510Z,2.60
2019-06-08T04:37:20.219Z,2.07
2019-06-08T04:39:50.891Z,2.70
2019-06-08T04:42:20.588Z,2.00
2019-06-08T04:44:50.821Z,3.17
2019-06-08T04:47:20.530Z,2.43
2019-06-08T04:49:50.068Z,2.00
2019-06-08T04:52:19.673Z,2.27
2019-06-08T04:54:49.981Z,2.30
2019-06-08T04:57:19.671Z,2.97
2019-06-08T04:59:50.431Z,3.40
2019-06-08T05:02:20.188Z,3.23
2019-06-08T05:04:50.514Z,4.03
2019-06-08T05:07:20.218Z,3.63
2019-06-08T05:09:49.862Z,3.17
2019-06-08T05:12:20.225Z,3.23
2019-06-08T05:14:50.735Z,3.73
2019-06-08T05:17:20.488Z,3.30
2019-06-08T05:19:50.643Z,2.57
2019-06-08T05:22:21.282Z,3.20
2019-06-08T05:24:51.542Z,2.83
2019-06-08T05:27:21.977Z,2.30
2019-06-08T05:29:51.764Z,3.07
2019-06-08T05:32:21.558Z,2.33
2019-06-08T05:34:51.202Z,3.03
2019-06-08T05:37:21.545Z,2.07
2019-06-08T05:39:51.383Z,2.50
2019-06-08T05:42:21.728Z,2.10
2019-06-08T05:44:51.505Z,2.50
2019-06-08T05:47:21.187Z,2.20
2019-06-08T05:49:50.826Z,2.67
2019-06-08T05:52:21.236Z,2.20
2019-06-08T05:54:51.650Z,2.97
2019-06-08T05:57:21.624Z,2.20
2019-06-08T05:59:51.291Z,2.30
2019-06-08T06:02:20.952Z,2.00
2019-06-08T06:04:53.420Z,2.20
2019-06-08T06:07:21.966Z,2.10
2019-06-08T06:09:51.575Z,2.10
2019-06-08T06:12:21.832Z,2.33
2019-06-08T06:14:51.513Z,2.30
2019-06-08T06:17:21.752Z,2.60
2019-06-08T06:19:51.628Z,2.23
2019-06-08T06:22:21.420Z,2.37
2019-06-08T06:24:51.992Z,2.10
2019-06-08T06:27:21.719Z,2.50
2019-06-08T06:29:52.018Z,2.40
2019-06-08T06:32:21.773Z,2.93
2019-06-08T06:34:52.219Z,3.20
2019-06-08T06:37:22.606Z,2.93
2019-06-08T06:39:52.444Z,3.27
2019-06-08T06:42:24.920Z,4.13
2019-06-08T06:44:54.824Z,4.40
2019-06-08T06:47:24.535Z,3.40
2019-06-08T06:49:54.144Z,4.50
2019-06-08T06:52:24.458Z,4.13
2019-06-08T06:54:54.139Z,4.07
2019-06-08T06:57:23.750Z,4.97
2019-06-08T06:59:54.164Z,4.23
2019-06-08T07:02:24.915Z,4.87
2019-06-08T07:04:54.619Z,4.60
2019-06-08T07:07:24.266Z,4.70
2019-06-08T07:09:54.940Z,4.00
2019-06-08T07:12:25.320Z,4.40
2019-06-08T07:14:55.485Z,5.10
2019-06-08T07:17:25.219Z,4.93
2019-06-08T07:19:54.841Z,4.10
2019-06-08T07:22:25.148Z,4.90
2019-06-08T07:24:55.684Z,5.07
2019-06-08T07:27:25.586Z,4.50
2019-06-08T07:29:55.272Z,4.30
2019-06-08T07:32:25.694Z,5.10
2019-06-08T07:34:55.530Z,4.33
2019-06-08T07:37:25.213Z,5.17
2019-06-08T07:39:56.163Z,5.17
2019-06-08T07:42:26.031Z,4.73
2019-06-08T07:44:55.740Z,5.67
2019-06-08T07:47:25.464Z,7.73
2019-06-08T07:49:55.674Z,5.57
2019-06-08T07:52:25.373Z,5.70
2019-06-08T07:54:56.669Z,5.53
2019-06-08T07:57:26.537Z,4.83
2019-06-08T07:59:56.467Z,5.13
2019-06-08T08:02:26.121Z,5.53
2019-06-08T08:04:56.720Z,5.47
2019-06-08T08:07:26.679Z,5.43
2019-06-08T08:09:57.115Z,5.20
2019-06-08T08:12:27.069Z,5.60
2019-06-08T08:14:58.004Z,5.47
2019-06-08T08:17:28.082Z,5.53
2019-06-08T08:19:59.307Z,6.60
2019-06-08T08:22:29.612Z,6.27
2019-06-08T08:25:04.160Z,7.30
2019-06-08T08:27:31.291Z,5.73
2019-06-08T08:30:02.088Z,5.67
2019-06-08T08:32:32.044Z,6.07
2019-06-08T08:35:02.973Z,6.33
2019-06-08T08:37:33.686Z,6.85
2019-06-08T08:40:03.564Z,4.90
2019-06-08T08:42:33.854Z,5.40
2019-06-08T08:45:07.887Z,5.23
2019-06-08T08:47:38.441Z,5.80
2019-06-08T08:50:07.681Z,5.53
2019-06-08T08:52:40.700Z,5.53
2019-06-08T08:55:09.850Z,6.13
2019-06-08T08:57:41.643Z,3.63
2019-06-08T09:00:11.708Z,5.10
2019-06-08T09:02:42.222Z,5.43
2019-06-08T09:05:12.121Z,4.60
2019-06-08T09:07:41.771Z,4.27
2019-06-08T09:10:12.941Z,4.67
2019-06-08T09:12:43.205Z,4.83
2019-06-08T09:15:13.249Z,4.50
2019-06-08T09:17:43.569Z,4.40
2019-06-08T09:20:15.950Z,4.83
2019-06-08T09:22:53.947Z,4.83
2019-06-08T09:25:18.212Z,4.40
2019-06-08T09:27:48.405Z,4.57
2019-06-08T09:30:18.559Z,4.87
2019-06-08T09:32:49.108Z,5.10
2019-06-08T09:35:21.364Z,4.70
2019-06-08T09:37:54.513Z,4.27
2019-06-08T09:40:31.928Z,4.80
2019-06-08T09:43:06.315Z,4.50
2019-06-08T09:45:30.925Z,3.97
2019-06-08T09:48:03.978Z,4.70
2019-06-08T09:50:32.207Z,3.67
2019-06-08T09:53:14.859Z,3.40
2019-06-08T09:55:34.097Z,4.17
2019-06-08T09:58:07.959Z,4.33
2019-06-08T10:00:37.898Z,4.77
2019-06-08T10:03:09.372Z,3.90
2019-06-08T10:05:39.409Z,4.73
2019-06-08T10:08:09.638Z,3.50
2019-06-08T10:10:39.528Z,4.10
2019-06-08T10:13:09.947Z,4.37
2019-06-08T10:15:41.717Z,4.17
2019-06-08T10:18:11.501Z,4.13
2019-06-08T10:20:41.174Z,3.77
2019-06-08T10:23:27.229Z,4.10
2019-06-08T10:25:42.951Z,4.07
2019-06-08T10:28:15.900Z,4.20
2019-06-08T10:30:44.108Z,4.03
2019-06-08T10:33:13.801Z,4.00
2019-06-08T10:35:43.571Z,3.70
2019-06-08T10:38:13.273Z,3.40
2019-06-08T10:41:07.891Z,3.77
2019-06-08T10:43:33.667Z,3.93
2019-06-08T10:46:10.056Z,4.07
2019-06-08T10:48:37.517Z,4.23
2019-06-08T10:51:10.484Z,3.50
2019-06-08T10:53:51.911Z,3.00
2019-06-08T10:56:12.317Z,3.93
2019-06-08T10:58:42.323Z,3.65
2019-06-08T11:01:13.153Z,2.80
2019-06-08T11:03:43.793Z,3.40
2019-06-08T11:06:14.264Z,3.10
2019-06-08T11:08:44.679Z,2.93
2019-06-08T11:11:19.600Z,3.83
2019-06-08T11:13:50.031Z,3.22
2019-06-08T11:16:20.383Z,3.63
2019-06-08T11:18:51.112Z,3.10
2019-06-08T11:21:21.779Z,2.80
2019-06-08T11:24:05.787Z,3.00
2019-06-08T11:26:24.769Z,3.63
2019-06-08T11:28:55.020Z,3.90
2019-06-08T11:31:24.791Z,3.13
2019-06-08T11:33:54.519Z,3.00
2019-06-08T11:36:28.058Z,2.87
2019-06-08T11:38:59.207Z,3.43
2019-06-08T11:41:29.056Z,3.37
2019-06-08T11:44:00.096Z,3.50
2019-06-08T11:46:31.375Z,3.53
2019-06-08T11:49:05.851Z,3.57
2019-06-08T11:51:33.041Z,3.13
2019-06-08T11:54:04.945Z,3.03
2019-06-08T11:56:37.529Z,3.12
2019-06-08T11:59:07.306Z,3.10
2019-06-08T12:01:36.858Z,3.30
2019-06-08T12:04:07.738Z,3.07
2019-06-08T12:06:38.187Z,2.97
2019-06-08T12:09:09.509Z,3.30
2019-06-08T12:11:40.722Z,3.80
2019-06-08T12:14:12.701Z,3.43
2019-06-08T12:16:42.685Z,3.30
2019-06-08T12:19:15.561Z,2.67
2019-06-08T12:21:44.327Z,3.10
2019-06-08T12:24:14.428Z,3.60
2019-06-08T12:26:47.574Z,2.87
2019-06-08T12:29:18.736Z,3.17
2019-06-08T12:31:48.081Z,2.83
2019-06-08T12:34:18.790Z,3.60
2019-06-08T12:36:49.091Z,3.20
2019-06-08T12:39:21.468Z,3.12
2019-06-08T12:41:51.882Z,3.37
2019-06-08T12:44:22.238Z,3.27
2019-06-08T12:46:52.855Z,3.20
2019-06-08T12:49:23.205Z,4.27
2019-06-08T12:51:53.601Z,2.80
2019-06-08T12:54:23.942Z,3.83
2019-06-08T12:56:54.308Z,3.10
2019-06-08T12:59:24.709Z,2.87
2019-06-08T13:01:54.752Z,3.33
2019-06-08T13:04:25.125Z,2.90
2019-06-08T13:06:55.642Z,3.33
2019-06-08T13:09:29.711Z,3.63
2019-06-08T13:11:59.433Z,3.40
2019-06-08T13:14:30.142Z,3.20
2019-06-08T13:17:01.217Z,3.07
2019-06-08T13:19:31.108Z,3.60
2019-06-08T13:22:01.379Z,3.20
2019-06-08T13:24:31.839Z,3.50
2019-06-08T13:27:02.177Z,3.80
2019-06-08T13:29:32.684Z,3.77
2019-06-08T13:32:03.077Z,3.20
2019-06-08T13:34:33.486Z,4.15
2019-06-08T13:37:03.840Z,4.20
2019-06-08T13:39:33.570Z,3.37
2019-06-08T13:42:03.877Z,3.43
2019-06-08T13:44:33.640Z,3.47
2019-06-08T13:47:03.920Z,4.23
2019-06-08T13:49:34.283Z,3.03
2019-06-08T13:52:04.050Z,3.37
2019-06-08T13:54:34.306Z,2.90
2019-06-08T13:57:04.781Z,3.07
2019-06-08T13:59:35.147Z,3.42
2019-06-08T14:02:04.876Z,3.03
2019-06-08T14:04:39.443Z,3.40
2019-06-08T14:07:07.798Z,2.90
2019-06-08T14:09:38.261Z,2.90
2019-06-08T14:12:08.030Z,3.57
2019-06-08T14:14:39.855Z,3.20
2019-06-08T14:17:08.881Z,2.97
2019-06-08T14:19:38.673Z,3.00
2019-06-08T14:22:10.512Z,2.63
2019-06-08T14:24:39.553Z,3.37
2019-06-08T14:27:09.166Z,2.80
2019-06-08T14:29:38.802Z,2.60
2019-06-08T14:32:09.103Z,3.10
2019-06-08T14:34:38.961Z,2.60
2019-06-08T14:37:08.749Z,3.40
2019-06-08T14:39:38.390Z,3.10
2019-06-08T14:42:08.648Z,3.50
2019-06-08T14:44:38.988Z,3.63
2019-06-08T14:47:14.717Z,2.93
2019-06-08T14:49:45.564Z,2.97
2019-06-08T14:52:15.175Z,2.87
2019-06-08T14:54:45.502Z,3.27
2019-06-08T14:57:15.197Z,3.93
2019-06-08T14:59:45.464Z,3.17
2019-06-08T15:02:17.760Z,2.80
2019-06-08T15:04:48.474Z,3.63
2019-06-08T15:07:22.942Z,3.30
2019-06-08T15:09:50.179Z,3.33
2019-06-08T15:12:19.953Z,3.20
2019-06-08T15:14:50.330Z,3.73
2019-06-08T15:17:21.864Z,3.60
2019-06-08T15:19:52.391Z,3.43
2019-06-08T15:22:26.803Z,3.73
2019-06-08T15:24:58.080Z,2.93
2019-06-08T15:27:32.792Z,3.00
2019-06-08T15:29:59.954Z,2.80
2019-06-08T15:32:35.012Z,2.60
2019-06-08T15:35:03.854Z,2.90
2019-06-08T15:37:37.949Z,3.08
2019-06-08T15:40:07.755Z,3.60
2019-06-08T15:42:37.501Z,3.63
2019-06-08T15:45:08.315Z,3.87
2019-06-08T15:47:40.777Z,3.87
2019-06-08T15:50:10.539Z,2.80
2019-06-08T15:52:41.059Z,2.97
2019-06-08T15:55:11.699Z,2.93
2019-06-08T15:57:41.610Z,2.97
2019-06-08T16:00:12.338Z,3.30
2019-06-08T16:02:42.083Z,3.20
2019-06-08T16:05:12.618Z,3.47
2019-06-08T16:07:42.615Z,3.10
2019-06-08T16:10:12.296Z,3.27
2019-06-08T16:12:41.989Z,3.22
2019-06-08T16:15:12.366Z,2.77
2019-06-08T16:17:42.180Z,3.73
2019-06-08T16:20:12.855Z,2.70
2019-06-08T16:22:43.576Z,3.53
2019-06-08T16:25:14.198Z,2.40
2019-06-08T16:27:44.082Z,3.10
2019-06-08T16:30:14.122Z,2.37
2019-06-08T16:32:43.809Z,3.80
2019-06-08T16:35:14.542Z,2.80
2019-06-08T16:37:45.085Z,3.00
2019-06-08T16:40:15.821Z,3.33
2019-06-08T16:42:46.275Z,3.27
2019-06-08T16:45:16.944Z,2.70
2019-06-08T16:47:46.821Z,3.83
2019-06-08T16:50:24.640Z,2.53
2019-06-08T16:52:47.714Z,4.50
2019-06-08T16:55:17.579Z,3.40
2019-06-08T16:57:47.229Z,2.70
2019-06-08T17:00:30.302Z,2.63
2019-06-08T17:02:49.927Z,2.73
2019-06-08T17:05:20.668Z,3.60
2019-06-08T17:07:51.111Z,2.83
2019-06-08T17:10:21.514Z,3.33
2019-06-08T17:12:52.298Z,3.33
2019-06-08T17:15:23.288Z,2.63
2019-06-08T17:17:53.129Z,4.40
2019-06-08T17:20:22.833Z,3.20
2019-06-08T17:22:53.215Z,2.63
2019-06-08T17:25:22.968Z,3.10
2019-06-08T17:27:53.296Z,2.97
2019-06-08T17:30:23.682Z,3.10
2019-06-08T17:32:53.378Z,3.87
2019-06-08T17:35:23.655Z,3.20
2019-06-08T17:37:53.339Z,3.07
2019-06-08T17:40:23.634Z,3.00
2019-06-08T17:42:53.965Z,3.10
2019-06-08T17:45:24.367Z,2.97
2019-06-08T17:47:54.076Z,2.90
2019-06-08T17:50:23.709Z,3.60
2019-06-08T17:52:54.009Z,2.90
2019-06-08T17:55:23.724Z,3.37
2019-06-08T17:57:54.135Z,2.63
2019-06-08T18:00:24.560Z,3.93
2019-06-08T18:02:57.730Z,3.30
2019-06-08T18:05:28.326Z,3.30
2019-06-08T18:07:58.557Z,3.43
2019-06-08T18:10:29.491Z,3.10
2019-06-08T18:13:00.050Z,4.03
2019-06-08T18:15:29.844Z,3.03
2019-06-08T18:18:00.242Z,3.00
2019-06-08T18:20:30.097Z,2.95
2019-06-08T18:23:00.630Z,3.60
2019-06-08T18:25:30.422Z,3.93
2019-06-08T18:28:09.140Z,2.77
2019-06-08T18:30:32.849Z,3.03
2019-06-08T18:33:03.362Z,3.70
2019-06-08T18:35:35.683Z,2.70
2019-06-08T18:38:07.304Z,3.03
2019-06-08T18:40:40.184Z,2.50
2019-06-08T18:43:10.214Z,3.17
2019-06-08T18:45:41.478Z,3.17
2019-06-08T18:48:11.224Z,3.00
2019-06-08T18:50:42.137Z,3.00
2019-06-08T18:53:12.415Z,2.80
2019-06-08T18:55:44.018Z,3.60
2019-06-08T18:58:23.790Z,3.27
2019-06-08T19:00:49.565Z,2.97
2019-06-08T19:03:17.203Z,3.03
2019-06-08T19:05:50.417Z,2.73
2019-06-08T19:08:20.222Z,2.83
2019-06-08T19:10:50.487Z,3.10
2019-06-08T19:13:21.375Z,3.03
2019-06-08T19:15:53.049Z,3.27
2019-06-08T19:18:22.393Z,3.73
2019-06-08T19:20:53.497Z,4.07
2019-06-08T19:23:24.068Z,2.77
2019-06-08T19:25:54.453Z,3.63
2019-06-08T19:28:35.828Z,2.57
2019-06-08T19:30:58.168Z,2.90
2019-06-08T19:33:28.216Z,3.87
2019-06-08T19:35:58.443Z,4.03
2019-06-08T19:38:28.841Z,4.60
2019-06-08T19:40:59.873Z,3.30
2019-06-08T19:43:30.797Z,2.93
2019-06-08T19:46:00.713Z,3.47
2019-06-08T19:48:31.473Z,2.77
2019-06-08T19:51:01.282Z,3.90
2019-06-08T19:53:31.047Z,3.03
2019-06-08T19:56:01.405Z,4.00
2019-06-08T19:58:31.232Z,3.50
2019-06-08T20:01:01.660Z,2.97
2019-06-08T20:03:32.151Z,3.33
2019-06-08T20:06:02.000Z,3.63
2019-06-08T20:08:31.734Z,4.13
2019-06-08T20:11:02.130Z,4.53
2019-06-08T20:13:32.642Z,3.23
2019-06-08T20:16:02.626Z,3.67
2019-06-08T20:18:32.315Z,3.77
2019-06-08T20:21:02.702Z,3.00
2019-06-08T20:23:33.218Z,3.90
2019-06-08T20:26:03.701Z,3.47
2019-06-08T20:28:33.464Z,2.83
2019-06-08T20:31:03.921Z,3.67
2019-06-08T20:33:34.339Z,3.20
2019-06-08T20:36:04.745Z,3.57
2019-06-08T20:38:38.770Z,3.60
2019-06-08T20:41:07.596Z,3.63
2019-06-08T20:43:38.110Z,3.27
2019-06-08T20:46:09.454Z,3.60
2019-06-08T20:48:39.172Z,3.67
2019-06-08T20:51:09.464Z,3.23
2019-06-08T20:53:39.256Z,3.63
2019-06-08T20:56:08.905Z,3.43
2019-06-08T20:58:38.587Z,3.10
2019-06-08T21:01:08.869Z,3.50
2019-06-08T21:03:38.587Z,3.40
2019-06-08T21:06:08.880Z,2.90
2019-06-08T21:08:38.619Z,3.27
2019-06-08T21:11:08.945Z,3.50
2019-06-08T21:13:38.681Z,2.97
2019-06-08T21:16:08.287Z,3.20
2019-06-08T21:18:38.039Z,3.83
2019-06-08T21:21:08.345Z,3.80
2019-06-08T21:23:37.985Z,3.70
2019-06-08T21:26:08.246Z,4.00
2019-06-08T21:28:38.511Z,2.87
2019-06-08T21:31:08.943Z,3.50
2019-06-08T21:33:38.653Z,3.20
2019-06-08T21:36:08.961Z,3.50
2019-06-08T21:38:38.706Z,3.83
2019-06-08T21:41:08.980Z,3.50
2019-06-08T21:43:38.707Z,4.00
2019-06-08T21:46:09.003Z,3.53
2019-06-08T21:48:38.741Z,3.33
2019-06-08T21:51:09.130Z,3.00
2019-06-08T21:53:38.882Z,3.83
2019-06-08T21:56:08.521Z,3.17
2019-06-08T21:58:38.926Z,3.23
2019-06-08T22:01:09.730Z,3.13
2019-06-08T22:03:40.130Z,3.33
2019-06-08T22:06:10.526Z,3.17
2019-06-08T22:08:40.938Z,3.40
2019-06-08T22:11:11.357Z,3.43
2019-06-08T22:13:41.771Z,3.27
2019-06-08T22:16:12.345Z,3.70
2019-06-08T22:18:42.748Z,2.73
2019-06-08T22:21:12.493Z,3.33
2019-06-08T22:23:42.080Z,3.47
2019-06-08T22:26:12.361Z,3.53
2019-06-08T22:28:42.081Z,3.27
2019-06-08T22:31:11.726Z,3.87
2019-06-08T22:33:41.992Z,3.20
2019-06-08T22:36:12.743Z,3.40
2019-06-08T22:38:42.537Z,3.93
2019-06-08T22:41:12.876Z,3.20
2019-06-08T22:43:42.614Z,3.60
2019-06-08T22:46:12.927Z,3.70
2019-06-08T22:48:42.649Z,4.00
2019-06-08T22:51:13.047Z,4.70
2019-06-08T22:53:42.720Z,4.30
2019-06-08T22:56:13.032Z,3.90
2019-06-08T22:58:42.802Z,2.87
2019-06-08T23:01:13.241Z,4.63
2019-06-08T23:03:42.914Z,3.57
2019-06-08T23:06:13.194Z,3.00
2019-06-08T23:08:42.940Z,3.80
2019-06-08T23:11:14.585Z,3.50
2019-06-08T23:13:47.308Z,4.07
2019-06-08T23:16:18.158Z,3.20
2019-06-08T23:18:48.725Z,4.23
2019-06-08T23:21:20.216Z,3.83
2019-06-08T23:23:50.594Z,4.10
2019-06-08T23:26:20.314Z,3.50
2019-06-08T23:28:50.689Z,3.60
2019-06-08T23:31:25.567Z,2.70
2019-06-08T23:33:53.247Z,3.30
2019-06-08T23:36:46.958Z,3.50
2019-06-08T23:38:56.941Z,3.90
2019-06-08T23:41:27.569Z,3.90
2019-06-08T23:43:57.906Z,4.60
2019-06-08T23:46:28.291Z,3.70
2019-06-08T23:49:00.617Z,3.57
2019-06-08T23:51:38.151Z,3.83
2019-06-08T23:54:10.486Z,3.70
2019-06-08T23:56:41.822Z,4.53
2019-06-08T23:59:12.184Z,3.47
